Time;durP1;ratioP1;P1;durP2;ratioP2;P2;SDS_P1;SDS_P2;PMS_P1;PMS_P2;Temp;Humidity;BMP_temperature;BMP_pressure;BME280_temperature;BME280_humidity;BME280_pressure;Samples;Min_cycle;Max_cycle;Signal;HPM_P1;HPM_P2
2022/03/09 00:01:32;;;;;;;10.00;5.12;;;;;;;-3.09;78.83;100323.11;1714914;83;21057;-69
2022/03/09 00:03:59;;;;;;;9.33;5.15;;;;;;;-3.11;79.23;100331.65;1713939;83;21151;-70
2022/03/09 00:06:26;;;;;;;10.08;5.53;;;;;;;-3.12;79.08;100333.36;1706757;84;21113;-68
2022/03/09 00:08:53;;;;;;;9.03;5.00;;;;;;;-3.18;79.27;100323.78;1706931;84;21109;-67
2022/03/09 00:11:21;;;;;;;15.88;7.20;;;;;;;-3.21;79.17;100329.30;1706776;83;21058;-67
2022/03/09 00:13:49;;;;;;;9.15;4.92;;;;;;;-3.25;79.44;100325.77;1697471;84;21052;-68
2022/03/09 00:16:16;;;;;;;7.45;4.80;;;;;;;-3.25;79.75;100330.92;1711688;83;21280;-69
2022/03/09 00:18:44;;;;;;;9.50;5.28;;;;;;;-3.24;79.98;100325.38;1711605;83;21067;-67
2022/03/09 00:21:10;;;;;;;9.33;4.85;;;;;;;-3.20;79.94;100331.92;1711984;83;21053;-68
2022/03/09 00:23:37;;;;;;;8.85;5.15;;;;;;;-3.23;80.50;100326.68;1711515;83;21055;-68
2022/03/09 00:26:04;;;;;;;9.35;5.47;;;;;;;-3.26;80.35;100325.77;1711731;83;21091;-67
2022/03/09 00:28:32;;;;;;;10.00;5.35;;;;;;;-3.31;80.43;100324.38;1715941;82;22406;-67
2022/03/09 00:30:59;;;;;;;11.57;5.53;;;;;;;-3.38;80.49;100317.35;1742819;82;21025;-69
2022/03/09 00:33:25;;;;;;;11.70;5.95;;;;;;;-3.43;80.69;100316.35;1742740;82;21132;-68
2022/03/09 00:35:53;;;;;;;12.37;5.75;;;;;;;-3.44;81.03;100313.34;1742889;82;21620;-68
2022/03/09 00:38:19;;;;;;;11.00;5.37;;;;;;;-3.46;81.34;100318.87;1742530;82;21029;-68
2022/03/09 00:40:48;;;;;;;10.08;5.87;;;;;;;-3.46;81.75;100315.00;1742671;82;21245;-68
2022/03/09 00:43:15;;;;;;;12.63;5.78;;;;;;;-3.45;81.75;100316.73;1742562;82;21100;-69
2022/03/09 00:45:43;;;;;;;7.90;5.25;;;;;;;-3.43;81.96;100316.35;1742682;82;21154;-68
2022/03/09 00:48:09;;;;;;;9.73;5.00;;;;;;;-3.43;81.84;100318.92;1742431;82;21061;-68
2022/03/09 00:50:37;;;;;;;7.42;5.08;;;;;;;-3.41;81.67;100320.70;1742645;82;21037;-68
2022/03/09 00:53:03;;;;;;;15.18;6.25;;;;;;;-3.41;81.52;100319.83;1742418;82;21439;-69
2022/03/09 00:55:31;;;;;;;9.58;5.35;;;;;;;-3.43;81.37;100318.53;1742692;82;21010;-69
2022/03/09 00:57:58;;;;;;;11.57;5.83;;;;;;;-3.43;81.68;100321.50;1742321;82;21014;-69
2022/03/09 01:00:24;;;;;;;12.95;6.40;;;;;;;-3.43;81.49;100317.25;1742485;82;21127;-68
2022/03/09 01:02:51;;;;;;;11.10;6.05;;;;;;;-3.44;81.23;100314.63;1742658;82;22163;-68
2022/03/09 01:06:28;;;;;;;10.40;5.78;;;;;;;-3.47;81.18;100318.00;1742304;82;21889;-67
2022/03/09 01:08:57;;;;;;;11.85;5.97;;;;;;;-3.47;80.86;100319.72;1741694;82;21679;-68
2022/03/09 01:11:23;;;;;;;9.48;6.10;;;;;;;-3.50;80.89;100317.05;1743041;82;21022;-68
2022/03/09 01:13:52;;;;;;;14.10;6.85;;;;;;;-3.48;81.16;100321.82;1742580;82;21088;-69
2022/03/09 01:16:19;;;;;;;16.67;6.67;;;;;;;-3.48;80.92;100317.96;1742648;82;21727;-69
2022/03/09 01:18:47;;;;;;;16.10;7.30;;;;;;;-3.49;81.04;100318.81;1742592;82;21045;-68
2022/03/09 01:21:13;;;;;;;12.73;6.72;;;;;;;-3.48;80.91;100315.38;1742693;82;21034;-68
2022/03/09 01:23:40;;;;;;;10.30;6.00;;;;;;;-3.47;81.05;100315.86;1742571;82;21101;-69
2022/03/09 01:26:06;;;;;;;11.35;6.53;;;;;;;-3.44;80.88;100320.64;1742914;82;21029;-68
2022/03/09 01:28:33;;;;;;;11.22;6.08;;;;;;;-3.41;81.05;100318.13;1742638;82;21034;-68
2022/03/09 01:31:00;;;;;;;12.80;6.33;;;;;;;-3.39;81.12;100310.44;1742603;82;22053;-68
2022/03/09 01:33:26;;;;;;;12.68;6.33;;;;;;;-3.36;81.12;100315.65;1742399;82;21025;-67
2022/03/09 01:35:53;;;;;;;13.85;7.47;;;;;;;-3.32;81.00;100318.75;1742962;82;21082;-69
2022/03/09 01:38:20;;;;;;;10.72;6.17;;;;;;;-3.31;80.94;100319.61;1742464;82;21029;-69
2022/03/09 01:40:46;;;;;;;13.58;7.03;;;;;;;-3.33;80.60;100320.89;1742675;82;21053;-68
2022/03/09 01:43:15;;;;;;;15.18;7.08;;;;;;;-3.31;80.55;100321.80;1742526;82;21426;-68
2022/03/09 01:45:41;;;;;;;15.53;7.87;;;;;;;-3.30;80.32;100326.09;1742722;82;21105;-68
2022/03/09 01:48:08;;;;;;;12.58;6.50;;;;;;;-3.29;80.18;100323.99;1742846;82;21042;-68
2022/03/09 01:50:35;;;;;;;13.38;6.28;;;;;;;-3.30;80.07;100323.52;1742851;82;21085;-68
2022/03/09 01:53:01;;;;;;;15.40;7.58;;;;;;;-3.31;80.02;100325.66;1743033;82;21097;-67
2022/03/09 01:55:28;;;;;;;12.53;6.92;;;;;;;-3.35;80.29;100326.42;1742811;82;21398;-68
2022/03/09 01:57:54;;;;;;;19.92;8.08;;;;;;;-3.35;80.38;100327.70;1742766;82;21580;-68
2022/03/09 02:00:22;;;;;;;12.65;7.03;;;;;;;-3.37;80.23;100335.39;1742484;82;21648;-68
2022/03/09 02:02:49;;;;;;;15.83;7.95;;;;;;;-3.40;79.87;100339.62;1706891;84;21522;-68
2022/03/09 02:05:16;;;;;;;14.60;7.75;;;;;;;-3.43;79.64;100336.95;1742399;82;21580;-69
2022/03/09 02:10:33;;;;;;;16.62;8.28;;;;;;;-3.53;80.09;100337.59;1742370;82;21085;-68
2022/03/09 02:13:00;;;;;;;16.37;7.37;;;;;;;-3.55;80.12;100339.25;1742326;82;21084;-68
2022/03/09 02:15:27;;;;;;;16.60;7.97;;;;;;;-3.59;80.27;100331.47;1713216;82;21061;-67
2022/03/09 02:17:53;;;;;;;13.62;6.83;;;;;;;-3.58;80.15;100336.20;1678653;85;21038;-67
2022/03/09 02:20:20;;;;;;;13.60;7.05;;;;;;;-3.60;80.06;100337.44;1712778;83;21247;-68
2022/03/09 02:22:48;;;;;;;14.05;7.60;;;;;;;-3.64;79.86;100340.77;1677946;85;21085;-69
2022/03/09 02:25:16;;;;;;;15.23;7.83;;;;;;;-3.64;80.31;100348.91;1712933;83;21092;-73
2022/03/09 02:27:44;;;;;;;15.40;7.55;;;;;;;-3.69;80.38;100348.80;1712562;83;21040;-68
2022/03/09 02:30:17;;;;;;;17.55;8.85;;;;;;;-3.69;80.35;100355.23;1712918;83;21584;-69
2022/03/09 02:32:48;;;;;;;22.00;9.30;;;;;;;-3.73;80.08;100352.13;1712786;83;21272;-68
2022/03/09 02:35:16;;;;;;;14.95;8.65;;;;;;;-3.75;79.76;100354.21;1712805;83;21076;-69
2022/03/09 02:37:43;;;;;;;17.60;9.33;;;;;;;-3.80;79.95;100356.67;1713021;83;21048;-67
2022/03/09 02:40:13;;;;;;;16.82;8.43;;;;;;;-3.83;80.01;100363.91;1678374;85;21043;-70
2022/03/09 02:42:41;;;;;;;16.90;8.73;;;;;;;-3.86;80.16;100361.69;1712991;83;21025;-67
2022/03/09 02:45:10;;;;;;;18.23;9.20;;;;;;;-3.88;80.50;100365.50;1678438;85;21310;-68
2022/03/09 02:47:42;;;;;;;21.68;8.98;;;;;;;-3.87;80.52;100365.08;1740338;82;21629;-68
2022/03/09 02:50:09;;;;;;;17.85;8.48;;;;;;;-3.87;80.83;100360.80;1742340;82;21062;-67
2022/03/09 02:52:39;;;;;;;17.40;8.75;;;;;;;-3.89;80.65;100360.30;1742192;82;21167;-69
2022/03/09 02:55:07;;;;;;;17.10;8.53;;;;;;;-3.89;80.89;100359.02;1742629;82;21115;-68
2022/03/09 02:57:36;;;;;;;14.90;8.73;;;;;;;-3.89;80.77;100361.59;1742234;82;21112;-69
2022/03/09 03:00:04;;;;;;;20.10;10.33;;;;;;;-3.92;80.88;100367.95;1742611;82;21052;-68
2022/03/09 03:02:32;;;;;;;15.15;7.85;;;;;;;-3.91;80.92;100371.87;1742762;82;21037;-68
2022/03/09 03:05:00;;;;;;;18.32;8.95;;;;;;;-3.94;81.19;100370.91;1743254;82;21030;-69
2022/03/09 03:07:26;;;;;;;14.63;7.93;;;;;;;-3.95;81.12;100371.75;1750341;80;21053;-69
2022/03/09 03:09:54;;;;;;;17.50;9.18;;;;;;;-4.01;81.39;100370.73;1750534;82;21017;-68
2022/03/09 03:12:21;;;;;;;20.03;9.10;;;;;;;-4.02;81.61;100366.86;1750617;82;21049;-68
2022/03/09 03:14:47;;;;;;;19.13;10.10;;;;;;;-4.01;81.75;100372.02;1729235;82;21043;-68
2022/03/09 03:17:14;;;;;;;21.97;9.15;;;;;;;-4.01;82.15;100370.73;1720713;83;21039;-68
2022/03/09 03:19:41;;;;;;;17.70;9.93;;;;;;;-3.99;82.24;100369.92;1720766;83;21059;-67
2022/03/09 03:22:08;;;;;;;19.15;10.15;;;;;;;-3.97;82.25;100375.98;1720616;83;21252;-69
2022/03/09 03:24:35;;;;;;;20.17;10.30;;;;;;;-3.96;82.08;100373.42;1720647;83;21044;-69
2022/03/09 03:27:02;;;;;;;18.15;9.83;;;;;;;-3.96;82.12;100377.71;1720726;83;21018;-67
2022/03/09 03:29:28;;;;;;;19.95;10.53;;;;;;;-3.94;82.08;100373.48;1720805;83;21043;-68
2022/03/09 03:31:55;;;;;;;16.25;9.35;;;;;;;-3.94;81.97;100378.63;1720792;83;21587;-69
2022/03/09 03:34:22;;;;;;;19.32;9.60;;;;;;;-3.96;82.02;100373.84;1720704;83;21285;-69
2022/03/09 03:36:48;;;;;;;18.55;10.45;;;;;;;-3.96;82.20;100372.56;1720594;83;21028;-68
2022/03/09 03:39:17;;;;;;;20.05;10.53;;;;;;;-3.96;82.32;100377.71;1720651;83;21035;-69
2022/03/09 03:41:43;;;;;;;16.05;9.33;;;;;;;-3.96;82.36;100372.56;1720669;83;21511;-68
2022/03/09 03:45:12;;;;;;;19.57;10.10;;;;;;;-3.96;82.43;100375.14;1720637;83;21078;-68
2022/03/09 03:47:38;;;;;;;21.60;10.43;;;;;;;-3.97;82.47;100376.84;1748599;82;21257;-68
2022/03/09 03:50:07;;;;;;;15.13;8.73;;;;;;;-4.02;82.37;100373.30;1750627;82;21462;-69
2022/03/09 03:52:35;;;;;;;19.32;10.35;;;;;;;-4.02;82.43;100372.87;1750757;82;21595;-68
2022/03/09 03:55:04;;;;;;;20.62;10.53;;;;;;;-4.02;82.25;100375.86;1750523;82;21045;-67
2022/03/09 03:57:31;;;;;;;20.70;10.17;;;;;;;-4.06;82.37;100372.33;1748407;82;21111;-69
2022/03/09 04:00:17;;;;;;;20.77;11.10;;;;;;;-4.11;82.28;100385.49;1745680;82;21088;-69
2022/03/09 04:03:02;;;;;;;19.15;10.75;;;;;;;-4.11;82.12;100390.64;1748275;82;21049;-69
2022/03/09 04:05:46;;;;;;;21.05;10.32;;;;;;;-4.13;82.07;100388.44;1742405;80;21094;-67
2022/03/09 04:08:31;;;;;;;18.80;10.17;;;;;;;-4.15;82.21;100390.09;1738958;82;21033;-68
2022/03/09 04:11:15;;;;;;;21.37;10.57;;;;;;;-4.15;82.34;100384.95;1741138;82;21057;-68
2022/03/09 04:14:00;;;;;;;21.20;10.97;;;;;;;-4.17;82.08;100394.32;1736836;82;21645;-67
2022/03/09 04:16:46;;;;;;;17.00;10.27;;;;;;;-4.21;82.06;100397.63;1741238;82;21057;-69
2022/03/09 04:19:31;;;;;;;15.23;8.53;;;;;;;-4.22;81.96;100394.20;1741447;82;21139;-69
2022/03/09 04:22:15;;;;;;;20.92;10.55;;;;;;;-4.25;82.01;100399.27;1740688;82;21085;-69
2022/03/09 04:25:01;;;;;;;20.47;10.43;;;;;;;-4.26;82.23;100401.80;1740791;82;21653;-68
2022/03/09 04:27:46;;;;;;;18.80;9.37;;;;;;;-4.29;82.49;100404.29;1741410;82;21049;-67
2022/03/09 04:30:30;;;;;;;14.58;8.70;;;;;;;-4.34;82.57;100405.88;1739262;82;21080;-68
2022/03/09 04:33:15;;;;;;;14.35;7.42;;;;;;;-4.39;82.49;100404.84;1740811;82;21057;-67
2022/03/09 04:40:07;;;;;;;16.87;8.70;;;;;;;-4.48;83.08;100406.35;1733706;82;21549;-67
2022/03/09 04:42:35;;;;;;;17.37;8.48;;;;;;;-4.55;83.00;100408.30;1738542;82;21126;-68
2022/03/09 04:45:03;;;;;;;15.00;8.10;;;;;;;-4.56;83.29;100412.96;1742636;82;21058;-67
2022/03/09 04:47:30;;;;;;;16.10;8.43;;;;;;;-4.56;83.42;100418.10;1742880;82;21468;-69
2022/03/09 04:49:57;;;;;;;16.37;7.70;;;;;;;-4.58;83.24;100416.31;1718077;82;21147;-69
2022/03/09 04:52:24;;;;;;;13.73;8.03;;;;;;;-4.57;83.26;100425.37;1702608;84;21026;-68
2022/03/09 04:55:09;;;;;;;12.63;7.33;;;;;;;-4.58;83.37;100414.61;1732665;82;21045;-69
2022/03/09 04:57:54;;;;;;;15.10;8.27;;;;;;;-4.54;83.58;100421.59;1740544;82;21053;-68
2022/03/09 05:00:21;;;;;;;15.57;7.67;;;;;;;-4.51;83.72;100419.13;1742599;82;21033;-68
2022/03/09 05:02:48;;;;;;;17.87;8.83;;;;;;;-4.46;83.81;100422.70;1742800;82;21105;-69
2022/03/09 05:05:15;;;;;;;16.70;7.80;;;;;;;-4.40;83.41;100421.98;1742647;80;21076;-68
2022/03/09 05:07:42;;;;;;;12.37;6.73;;;;;;;-4.33;83.33;100430.74;1742605;82;21161;-68
2022/03/09 05:10:10;;;;;;;15.67;7.13;;;;;;;-4.31;83.13;100427.37;1742579;82;21046;-68
2022/03/09 05:12:38;;;;;;;13.37;7.03;;;;;;;-4.25;82.97;100435.70;1742521;82;21120;-67
2022/03/09 05:15:08;;;;;;;11.28;7.05;;;;;;;-4.10;83.16;100432.23;1729712;82;21059;-69
2022/03/09 05:17:41;;;;;;;11.08;6.10;;;;;;;-3.69;82.60;100435.03;1713213;82;21082;-68
2022/03/09 05:20:10;;;;;;;16.27;5.97;;;;;;;-3.14;81.82;100427.78;1678652;85;21198;-69
2022/03/09 05:22:37;;;;;;;11.78;6.22;;;;;;;-2.54;79.30;100433.82;1713008;83;21075;-68
2022/03/09 05:25:07;;;;;;;13.48;5.67;;;;;;;-2.00;76.48;100430.14;1712908;82;21032;-69
2022/03/09 05:27:35;;;;;;;11.48;5.78;;;;;;;-1.48;72.83;100431.92;1678380;85;21116;-69
2022/03/09 05:30:05;;;;;;;9.08;5.58;;;;;;;-1.09;70.57;100437.28;1713167;83;21091;-68
2022/03/09 05:32:33;;;;;;;13.83;5.78;;;;;;;-0.67;69.11;100436.19;1713291;82;21027;-70
2022/03/09 05:35:00;;;;;;;9.40;5.37;;;;;;;-0.38;67.63;100440.85;1728562;82;21435;-69
2022/03/09 05:37:28;;;;;;;14.15;5.25;;;;;;;-0.24;64.66;100443.17;1742834;82;21062;-70
2022/03/09 05:39:55;;;;;;;9.65;5.50;;;;;;;-0.38;65.09;100442.15;1742665;82;21026;-69
2022/03/09 05:42:22;;;;;;;14.87;5.10;;;;;;;-0.55;64.78;100452.69;1742710;82;21057;-69
2022/03/09 05:44:49;;;;;;;7.95;5.08;;;;;;;-0.75;64.14;100449.42;1742836;82;21261;-70
2022/03/09 05:47:17;;;;;;;11.15;5.10;;;;;;;-0.95;65.21;100456.02;1742525;82;21081;-68
2022/03/09 05:49:44;;;;;;;8.85;5.00;;;;;;;-1.03;65.50;100456.34;1723728;82;21159;-69
2022/03/09 05:52:11;;;;;;;9.63;4.90;;;;;;;-1.27;64.80;100462.84;1678272;85;21060;-68
2022/03/09 05:54:39;;;;;;;7.58;4.83;;;;;;;-1.56;65.85;100459.36;1712852;83;21760;-69
2022/03/09 05:57:06;;;;;;;8.95;5.12;;;;;;;-1.72;66.69;100467.69;1678495;85;21088;-69
2022/03/09 05:59:33;;;;;;;9.20;5.37;;;;;;;-1.95;66.95;100462.95;1712650;83;21103;-69
2022/03/09 06:01:59;;;;;;;7.55;4.33;;;;;;;-2.12;67.91;100472.06;1701612;84;21053;-69
2022/03/09 06:04:26;;;;;;;9.53;4.55;;;;;;;-2.07;68.61;100471.77;1742436;80;21143;-69
2022/03/09 06:06:53;;;;;;;11.93;5.40;;;;;;;-1.91;68.25;100477.66;1742491;80;21048;-68
2022/03/09 06:09:20;;;;;;;13.90;4.40;;;;;;;-1.33;68.34;100482.14;1706851;84;21984;-68
2022/03/09 06:11:46;;;;;;;8.28;5.12;;;;;;;-0.57;66.75;100469.94;1742538;82;21612;-70
2022/03/09 06:14:13;;;;;;;7.62;4.85;;;;;;;0.15;63.55;100479.44;1706918;84;21565;-69
2022/03/09 06:16:39;;;;;;;11.18;5.40;;;;;;;0.73;61.07;100471.78;1742922;82;21569;-69
2022/03/09 06:19:07;;;;;;;8.28;5.22;;;;;;;1.74;57.15;100475.03;1742855;82;21494;-70
2022/03/09 06:21:34;;;;;;;8.90;5.05;;;;;;;1.74;57.15;100475.03;1742560;82;21279;-69
2022/03/09 06:24:00;;;;;;;9.95;5.03;;;;;;;2.30;55.35;100471.77;1742603;82;21041;-69
2022/03/09 06:26:26;;;;;;;9.13;4.97;;;;;;;2.82;52.94;100470.09;1742422;82;21641;-68
2022/03/09 06:28:53;;;;;;;7.60;4.92;;;;;;;3.36;52.93;100466.56;1742650;82;21021;-71
2022/03/09 06:31:19;;;;;;;8.00;5.17;;;;;;;3.90;50.89;100476.80;1742519;82;21064;-68
2022/03/09 06:33:46;;;;;;;8.75;5.50;;;;;;;4.53;50.00;100468.66;1742820;82;21240;-69
2022/03/09 06:36:12;;;;;;;11.22;5.85;;;;;;;5.10;46.91;100468.17;1742586;82;21085;-69
2022/03/09 06:38:38;;;;;;;7.85;4.95;;;;;;;5.37;46.14;100479.25;1707061;83;21113;-69
2022/03/09 06:41:05;;;;;;;9.13;5.10;;;;;;;5.65;46.13;100478.50;1742691;82;21026;-68
2022/03/09 06:43:32;;;;;;;8.95;5.67;;;;;;;5.77;44.88;100478.80;1742591;82;21115;-67
2022/03/09 06:45:58;;;;;;;7.95;5.22;;;;;;;5.73;43.92;100473.17;1742548;82;21246;-70
2022/03/09 06:48:25;;;;;;;9.40;5.30;;;;;;;5.45;44.73;100480.02;1742756;82;21038;-71
2022/03/09 06:50:52;;;;;;;8.20;5.47;;;;;;;5.06;44.79;100482.13;1747803;82;21072;-70
2022/03/09 06:53:18;;;;;;;9.50;5.60;;;;;;;4.37;45.17;100491.35;1747946;82;21033;-71
2022/03/09 06:55:45;;;;;;;12.05;5.50;;;;;;;3.65;46.25;100485.58;1747878;82;21073;-69
2022/03/09 06:58:11;;;;;;;7.97;5.47;;;;;;;3.10;47.67;100491.31;1747343;82;21928;-69
2022/03/09 07:00:38;;;;;;;11.28;6.17;;;;;;;2.63;48.92;100486.98;1742507;82;21487;-69
2022/03/09 07:03:05;;;;;;;8.98;5.65;;;;;;;2.24;49.83;100493.84;1707274;83;21109;-68
2022/03/09 07:05:33;;;;;;;8.75;5.30;;;;;;;1.80;51.47;100486.77;1742569;80;21597;-69
2022/03/09 07:08:00;;;;;;;9.88;5.80;;;;;;;1.52;52.15;100487.46;1748601;82;21018;-69
2022/03/09 07:10:27;;;;;;;11.93;5.20;;;;;;;1.35;53.60;100491.27;1750567;82;21265;-69
2022/03/09 07:12:54;;;;;;;9.68;5.62;;;;;;;1.23;53.73;100488.17;1750741;82;21045;-70
2022/03/09 07:15:20;;;;;;;9.75;5.45;;;;;;;1.14;54.56;100494.59;1750516;82;21029;-69
2022/03/09 07:17:48;;;;;;;11.00;6.10;;;;;;;1.01;54.38;100489.33;1750615;82;21017;-69
2022/03/09 07:21:13;;;;;;;10.60;5.70;;;;;;;1.01;54.65;100493.22;1796724;79;22682;-69
2022/03/09 07:23:40;;;;;;;12.43;5.78;;;;;;;0.84;56.45;100483.98;1756480;81;21045;-70
2022/03/09 07:26:06;;;;;;;10.58;5.78;;;;;;;0.79;56.23;100483.52;1756485;81;21078;-68
2022/03/09 07:28:33;;;;;;;11.57;5.97;;;;;;;0.79;56.23;100483.52;1756209;81;20946;-68
2022/03/09 07:31:01;;;;;;;10.85;6.42;;;;;;;0.68;56.51;100487.73;1756915;81;21037;-69
2022/03/09 07:33:28;;;;;;;11.95;6.00;;;;;;;0.57;56.69;100493.67;1756422;81;21067;-70
2022/03/09 07:35:56;;;;;;;11.22;6.65;;;;;;;0.40;57.20;100501.73;1756485;81;21017;-70
2022/03/09 07:38:23;;;;;;;10.75;6.17;;;;;;;0.32;58.10;100502.06;1756455;81;21852;-70
2022/03/09 07:40:49;;;;;;;11.55;6.72;;;;;;;0.18;58.22;100495.03;1756682;81;21489;-68
2022/03/09 07:43:16;;;;;;;12.78;6.90;;;;;;;0.17;58.81;100504.93;1756307;81;21061;-69
2022/03/09 07:45:43;;;;;;;14.95;6.03;;;;;;;0.11;58.97;100502.27;1756776;81;21105;-68
2022/03/09 07:48:09;;;;;;;11.53;6.53;;;;;;;0.06;58.68;100497.89;1762518;81;21033;-69
2022/03/09 07:50:36;;;;;;;11.83;6.40;;;;;;;0.03;59.23;100497.87;1756583;81;21864;-70
2022/03/09 07:53:05;;;;;;;10.28;6.15;;;;;;;0.01;59.16;100497.84;1756281;81;21492;-69
2022/03/09 07:55:32;;;;;;;9.43;5.92;;;;;;;-0.07;59.25;100498.16;1756536;81;21004;-69
2022/03/09 07:57:59;;;;;;;10.40;6.00;;;;;;;-0.03;59.46;100502.10;1756277;81;21067;-69
2022/03/09 08:00:27;;;;;;;10.90;6.42;;;;;;;-0.02;59.55;100500.41;1756613;81;21082;-69
2022/03/09 08:02:54;;;;;;;10.68;6.50;;;;;;;-0.03;59.95;100500.80;1756316;81;21244;-69
2022/03/09 08:05:21;;;;;;;10.90;6.10;;;;;;;-0.01;60.15;100500.83;1733256;81;21050;-69
2022/03/09 08:07:47;;;;;;;15.90;6.75;;;;;;;0.03;60.23;100505.20;1726315;83;21098;-70
2022/03/09 08:10:15;;;;;;;9.90;6.30;;;;;;;0.10;59.97;100504.42;1726370;83;21563;-69
2022/03/09 08:12:42;;;;;;;13.38;6.00;;;;;;;0.22;60.00;100492.47;1726212;83;22238;-70
2022/03/09 08:15:09;;;;;;;14.83;7.85;;;;;;;0.43;60.22;100500.45;1726326;82;22125;-69
2022/03/09 08:17:37;;;;;;;13.85;7.62;;;;;;;0.52;58.32;100492.77;1726652;83;21078;-68
2022/03/09 08:20:07;;;;;;;11.63;6.33;;;;;;;0.43;58.16;100494.41;1724151;82;21614;-69
2022/03/09 08:22:34;;;;;;;10.48;6.17;;;;;;;0.40;59.02;100496.55;1721402;83;21641;-69
2022/03/09 08:25:01;;;;;;;15.03;7.33;;;;;;;0.56;59.38;100485.47;1721370;83;22218;-70
2022/03/09 08:39:22;;;;;;;10.40;6.27;;;;;;;2.98;52.54;100471.81;1841256;77;27618;-69
2022/03/09 08:41:50;;;;;;;10.90;6.67;;;;;;;3.53;51.48;100471.72;1828838;78;20992;-68
2022/03/09 08:44:16;;;;;;;11.33;6.53;;;;;;;4.27;49.63;100463.58;1828774;78;21150;-68
2022/03/09 08:46:43;;;;;;;10.95;6.53;;;;;;;5.26;48.03;100456.70;1828818;78;21020;-70
2022/03/09 08:49:10;;;;;;;9.70;5.83;;;;;;;6.30;46.05;100455.93;1823849;78;21011;-69
2022/03/09 08:51:37;;;;;;;11.15;6.47;;;;;;;7.11;44.48;100456.39;1817187;79;21000;-70
2022/03/09 08:54:03;;;;;;;9.80;6.28;;;;;;;7.62;43.21;100448.89;1816914;79;20949;-69
2022/03/09 08:56:32;;;;;;;12.03;6.80;;;;;;;7.74;41.34;100446.01;1816985;79;21704;-69
2022/03/09 08:58:59;;;;;;;9.28;6.30;;;;;;;7.71;41.29;100448.70;1816732;79;20971;-69
2022/03/09 09:01:25;;;;;;;9.40;6.42;;;;;;;7.71;41.84;100455.72;1817338;79;20995;-69
2022/03/09 09:03:52;;;;;;;9.68;6.30;;;;;;;7.78;40.83;100464.72;1816730;79;21547;-69
2022/03/09 09:06:18;;;;;;;10.58;6.58;;;;;;;7.52;40.77;100457.80;1817041;79;21075;-70
2022/03/09 09:08:46;;;;;;;10.58;6.62;;;;;;;7.26;41.27;100462.23;1816906;79;21114;-69
2022/03/09 09:11:13;;;;;;;10.10;6.47;;;;;;;7.24;41.60;100457.02;1816971;79;21017;-69
2022/03/09 09:13:41;;;;;;;9.28;6.40;;;;;;;7.24;41.94;100466.18;1816821;79;21499;-68
2022/03/09 09:16:08;;;;;;;10.63;6.87;;;;;;;7.10;41.59;100465.56;1816919;79;20996;-69
2022/03/09 09:18:34;;;;;;;13.62;7.03;;;;;;;7.02;41.49;100470.09;1816873;79;21114;-69
2022/03/09 09:21:03;;;;;;;13.32;8.45;;;;;;;6.94;41.48;100469.75;1816789;79;21594;-69
2022/03/09 09:23:30;;;;;;;11.88;7.87;;;;;;;6.58;41.75;100469.02;1816603;79;21020;-69
2022/03/09 09:25:57;;;;;;;13.00;6.62;;;;;;;6.65;42.08;100472.00;1816783;79;21484;-69
2022/03/09 09:28:23;;;;;;;11.97;7.35;;;;;;;6.86;41.92;100474.27;1801051;79;21036;-69
2022/03/09 09:30:50;;;;;;;11.55;7.20;;;;;;;7.46;41.66;100464.50;1788672;79;21076;-69
2022/03/09 09:33:16;;;;;;;9.93;6.72;;;;;;;8.08;41.13;100474.63;1796337;79;21088;-68
2022/03/09 09:35:43;;;;;;;9.70;6.37;;;;;;;8.82;39.48;100460.70;1796145;79;21046;-70
2022/03/09 09:38:09;;;;;;;9.28;5.83;;;;;;;9.23;38.91;100458.34;1796213;78;21025;-68
2022/03/09 09:40:43;;;;;;;10.68;6.15;;;;;;;9.68;37.51;100465.01;1795335;79;21028;-69
2022/03/09 09:43:14;;;;;;;9.65;6.50;;;;;;;9.96;36.90;100458.95;1795714;79;21595;-69
2022/03/09 09:45:43;;;;;;;13.18;6.80;;;;;;;9.98;36.58;100461.09;1795624;79;21024;-70
2022/03/09 09:48:10;;;;;;;8.50;6.15;;;;;;;10.21;35.50;100462.58;1795824;79;21029;-71
2022/03/09 09:50:38;;;;;;;11.08;6.55;;;;;;;9.99;36.05;100462.38;1764069;81;21575;-69
2022/03/09 09:53:06;;;;;;;10.40;7.30;;;;;;;10.14;35.38;100462.36;1764108;81;21064;-69
2022/03/09 09:55:33;;;;;;;11.48;6.90;;;;;;;10.17;35.29;100463.61;1764098;81;21546;-70
2022/03/09 09:58:01;;;;;;;8.38;5.83;;;;;;;10.44;34.75;100457.11;1764358;81;21196;-68
2022/03/09 10:00:29;;;;;;;15.48;8.08;;;;;;;10.59;34.18;100455.78;1763859;81;21095;-70
2022/03/09 10:02:56;;;;;;;9.98;6.55;;;;;;;10.58;32.98;100457.56;1764027;81;21028;-70
2022/03/09 10:05:22;;;;;;;9.90;6.40;;;;;;;10.62;33.76;100455.20;1764231;81;21072;-69
2022/03/09 10:08:09;;;;;;;10.13;6.78;;;;;;;10.25;33.99;100460.27;1764115;80;21057;-69
2022/03/09 10:10:58;;;;;;;11.63;7.22;;;;;;;9.71;34.57;100462.31;1763903;81;21528;-69
2022/03/09 10:13:38;;;;;;;9.08;6.42;;;;;;;9.15;35.82;100464.69;1763974;81;21008;-69
2022/03/09 10:16:16;;;;;;;7.37;5.50;;;;;;;8.60;36.78;100465.17;1764162;80;21036;-70
2022/03/09 10:18:55;;;;;;;9.98;6.12;;;;;;;8.15;37.03;100473.13;1764384;81;21044;-69
2022/03/09 10:21:28;;;;;;;10.32;6.80;;;;;;;7.67;37.31;100469.77;1764197;80;21055;-70
2022/03/09 10:24:02;;;;;;;9.90;6.85;;;;;;;7.42;38.49;100470.68;1764076;81;21792;-69
2022/03/09 10:26:40;;;;;;;10.75;6.62;;;;;;;7.21;38.73;100470.63;1764120;81;21480;-69
2022/03/09 10:29:15;;;;;;;10.48;7.20;;;;;;;6.97;39.10;100477.13;1764003;79;21068;-69
2022/03/09 10:31:47;;;;;;;9.58;6.47;;;;;;;6.63;39.54;100475.08;1764367;79;21005;-70
2022/03/09 10:34:24;;;;;;;11.53;6.65;;;;;;;6.38;40.24;100478.05;1764338;81;21009;-68
2022/03/09 10:37:03;;;;;;;7.87;6.00;;;;;;;6.07;40.54;100486.32;1764226;80;21860;-69
2022/03/09 10:39:34;;;;;;;13.32;6.90;;;;;;;5.83;41.00;100477.43;1766319;80;21024;-71
2022/03/09 10:42:03;;;;;;;;;;;;;;;5.76;40.06;100471.86;1769894;80;21571;-68
2022/03/09 10:44:47;;;;;;;11.03;6.55;;;;;;;5.48;41.07;100477.84;1767387;81;20173;-69
2022/03/09 10:47:42;;;;;;;9.33;5.95;;;;;;;5.51;42.80;100473.43;1767357;79;21043;-70
2022/03/09 10:50:28;;;;;;;8.33;6.03;;;;;;;5.91;41.96;100474.27;1753008;81;21305;-70
2022/03/09 10:53:02;;;;;;;10.98;6.03;;;;;;;6.25;41.61;100473.41;1757751;81;21086;-69
2022/03/09 10:55:38;;;;;;;8.93;5.75;;;;;;;6.34;41.36;100478.97;1711180;83;21714;-69
2022/03/09 10:58:21;;;;;;;9.90;6.12;;;;;;;6.25;41.30;100476.48;1711416;83;21068;-70
2022/03/09 11:00:51;;;;;;;10.88;6.40;;;;;;;6.10;40.74;100473.64;1711725;83;21571;-70
2022/03/09 11:03:24;;;;;;;8.55;5.40;;;;;;;6.13;41.49;100476.66;1711397;83;21268;-70
2022/03/09 11:05:59;;;;;;;11.40;6.15;;;;;;;6.12;40.95;100473.19;1711580;83;21603;-69
2022/03/09 11:08:29;;;;;;;11.08;7.17;;;;;;;6.05;40.98;100468.47;1711396;83;21611;-68
2022/03/09 11:10:58;;;;;;;9.40;5.70;;;;;;;5.84;40.91;100465.66;1711355;83;21060;-69
2022/03/09 11:13:29;;;;;;;9.85;6.22;;;;;;;5.52;41.19;100475.17;1711539;83;21119;-69
2022/03/09 11:15:57;;;;;;;12.37;6.78;;;;;;;5.27;41.25;100475.87;1711437;83;21085;-68
2022/03/09 11:18:28;;;;;;;11.35;6.12;;;;;;;4.91;42.08;100461.41;1711202;83;21104;-68
2022/03/09 11:21:05;;;;;;;11.83;6.15;;;;;;;4.60;42.40;100468.14;1711487;83;22136;-69
2022/03/09 11:23:34;;;;;;;9.78;5.50;;;;;;;4.37;43.31;100474.41;1711298;83;21361;-68
2022/03/09 11:26:08;;;;;;;9.53;5.95;;;;;;;4.31;44.15;100477.48;1711251;83;21067;-69
2022/03/09 11:28:38;;;;;;;10.38;5.65;;;;;;;4.23;43.73;100470.13;1711247;82;21187;-68
2022/03/09 11:31:11;;;;;;;8.10;5.00;;;;;;;4.08;44.25;100474.55;1711575;83;21072;-70
2022/03/09 11:33:57;;;;;;;10.95;6.05;;;;;;;3.91;44.74;100479.86;1711351;83;21540;-70
2022/03/09 11:36:33;;;;;;;8.80;5.83;;;;;;;3.67;44.49;100476.03;1711393;83;21505;-68
2022/03/09 11:39:12;;;;;;;10.58;6.60;;;;;;;3.38;45.01;100477.40;1706460;82;21069;-68
2022/03/09 11:41:41;;;;;;;13.40;7.25;;;;;;;3.18;45.30;100482.22;1700929;84;21182;-68
2022/03/09 11:44:29;;;;;;;14.53;7.50;;;;;;;2.82;48.04;100485.70;1700757;84;21009;-68
2022/03/09 11:47:02;;;;;;;28.32;11.18;;;;;;;2.48;49.15;100490.85;1700614;84;21100;-69
2022/03/09 11:49:52;;;;;;;17.98;9.10;;;;;;;2.03;52.59;100489.45;1725595;82;21251;-71
2022/03/09 11:52:22;;;;;;;21.48;9.78;;;;;;;1.69;54.62;100491.03;1754849;81;20992;-68
2022/03/09 11:54:55;;;;;;;20.75;9.90;;;;;;;1.46;54.58;100490.47;1741325;82;21126;-70